Time,TemperatureF,DewpointF,PressureIn,WindDirection,WindDirectionDegrees,WindSpeedMPH,WindSpeedGustMPH,Humidity,HourlyPrecipIn,Conditions,Clouds,dailyrainin,SoftwareType,DateUTC
2013-03-24 00:00:00,47.8,46.4,29.72,ESE,109,9.0,11.0,95,0.00,,,0.02,WeatherCatV1.00B22,2013-03-24 04:00:00,
2013-03-24 00:01:00,47.8,46.4,29.73,ESE,105,8.0,11.0,95,0.00,,,0.00,WeatherCatV1.00B22,2013-03-24 04:01:00,
2013-03-24 00:06:00,47.8,46.4,29.73,ESE,106,7.0,11.0,95,0.00,,,0.00,WeatherCatV1.00B22,2013-03-24 04:06:00,
2013-03-24 00:11:00,47.8,46.7,29.71,ESE,108,8.0,12.0,96,0.00,,,0.00,WeatherCatV1.00B22,2013-03-24 04:11:00,
2013-03-24 00:16:00,47.7,46.6,29.69,East,80,9.0,9.0,96,0.00,,,0.00,WeatherCatV1.00B22,2013-03-24 04:16:00,
2013-03-24 00:21:00,47.7,46.6,29.68,East,79,7.0,10.0,96,0.00,,,0.00,WeatherCatV1.00B22,2013-03-24 04:21:00,
2013-03-24 00:26:00,47.6,46.5,29.66,ENE,70,4.0,7.0,96,0.00,,,0.00,WeatherCatV1.00B22,2013-03-24 04:26:00,
2013-03-24 00:31:00,47.5,46.4,29.66,ESE,113,9.0,12.0,96,0.00,,,0.00,WeatherCatV1.00B22,2013-03-24 04:31:00,
2013-03-24 00:36:00,47.5,46.4,29.68,East,80,6.0,6.0,96,0.00,,,0.00,WeatherCatV1.00B22,2013-03-24 04:36:00,
2013-03-24 00:41:00,47.4,46.3,29.70,ENE,69,4.0,5.0,96,0.00,,,0.00,WeatherCatV1.00B22,2013-03-24 04:41:00,
2013-03-24 00:46:00,47.5,46.4,29.72,ESE,106,3.0,5.0,96,0.00,,,0.00,WeatherCatV1.00B22,2013-03-24 04:46:00,
2013-03-24 00:51:00,47.5,46.4,29.71,ENE,69,3.0,6.0,96,0.00,,,0.00,WeatherCatV1.00B22,2013-03-24 04:51:00,
2013-03-24 00:56:00,47.5,46.4,29.72,NE,40,4.0,4.0,96,0.00,,,0.00,WeatherCatV1.00B22,2013-03-24 04:56:00,
2013-03-24 01:01:00,47.5,46.4,29.68,NE,53,9.0,12.0,96,0.00,,,0.00,WeatherCatV1.00B22,2013-03-24 05:01:00,
2013-03-24 01:06:00,47.5,46.1,29.66,ENE,73,5.0,11.0,95,0.00,,,0.00,WeatherCatV1.00B22,2013-03-24 05:06:00,
2013-03-24 01:11:00,47.4,46.0,29.67,ENE,57,7.0,8.0,95,0.00,,,0.00,WeatherCatV1.00B22,2013-03-24 05:11:00,
2013-03-24 01:16:00,47.4,46.3,29.66,NE,42,11.0,11.0,96,0.00,,,0.00,WeatherCatV1.00B22,2013-03-24 05:16:00,
2013-03-24 01:21:00,47.4,46.3,29.67,NE,53,6.0,8.0,96,0.00,,,0.00,WeatherCatV1.00B22,2013-03-24 05:21:00,
2013-03-24 01:26:00,47.4,46.3,29.66,NE,38,8.0,11.0,96,0.00,,,0.00,WeatherCatV1.00B22,2013-03-24 05:26:00,
2013-03-24 01:31:00,47.4,46.3,29.66,NE,44,12.0,13.0,96,0.00,,,0.00,WeatherCatV1.00B22,2013-03-24 05:31:00,
2013-03-24 01:36:00,47.4,46.3,29.66,ENE,57,8.0,9.0,96,0.00,,,0.00,WeatherCatV1.00B22,2013-03-24 05:36:00,
2013-03-24 01:41:00,47.4,46.3,29.65,NE,53,5.0,11.0,96,0.00,,,0.00,WeatherCatV1.00B22,2013-03-24 05:41:00,
2013-03-24 01:46:00,47.3,46.2,29.65,NNE,30,7.0,11.0,96,0.00,,,0.00,WeatherCatV1.00B22,2013-03-24 05:46:00,
2013-03-24 01:51:00,47.4,46.3,29.64,NNE,27,11.0,13.0,96,0.00,,,0.00,WeatherCatV1.00B22,2013-03-24 05:51:00,
2013-03-24 01:56:00,47.4,46.3,29.65,NE,42,8.0,14.0,96,0.00,,,0.00,WeatherCatV1.00B22,2013-03-24 05:56:00,
2013-03-24 02:01:00,47.4,46.3,29.66,NNE,25,8.0,8.0,96,0.00,,,0.00,WeatherCatV1.00B22,2013-03-24 06:01:00,
2013-03-24 02:06:00,47.3,46.2,29.65,NE,35,12.0,14.0,96,0.00,,,0.00,WeatherCatV1.00B22,2013-03-24 06:06:00,
2013-03-24 02:11:00,47.4,46.0,29.65,NE,48,7.0,12.0,95,0.00,,,0.00,WeatherCatV1.00B22,2013-03-24 06:11:00,
2013-03-24 02:16:00,47.4,46.3,29.65,NE,53,8.0,10.0,96,0.00,,,0.00,WeatherCatV1.00B22,2013-03-24 06:16:00,
2013-03-24 02:21:00,47.4,46.0,29.66,NE,46,7.0,9.0,95,0.00,,,0.00,WeatherCatV1.00B22,2013-03-24 06:21:00,
2013-03-24 02:26:00,47.4,46.0,29.66,NNE,32,5.0,6.0,95,0.00,,,0.00,WeatherCatV1.00B22,2013-03-24 06:26:00,
2013-03-24 02:31:00,47.4,46.0,29.67,NE,56,7.0,10.0,95,0.00,,,0.00,WeatherCatV1.00B22,2013-03-24 06:31:00,
2013-03-24 02:36:00,47.5,46.1,29.66,NE,47,7.0,8.0,95,0.00,,,0.00,WeatherCatV1.00B22,2013-03-24 06:36:00,
2013-03-24 02:41:00,47.5,46.1,29.66,ENE,64,5.0,9.0,95,0.00,,,0.00,WeatherCatV1.00B22,2013-03-24 06:41:00,
2013-03-24 02:46:00,47.6,46.2,29.66,NE,44,6.0,6.0,95,0.00,,,0.00,WeatherCatV1.00B22,2013-03-24 06:46:00,
2013-03-24 02:51:00,47.5,46.1,29.64,NE,49,9.0,9.0,95,0.00,,,0.00,WeatherCatV1.00B22,2013-03-24 06:51:00,
2013-03-24 02:56:00,47.6,46.5,29.64,NE,34,10.0,11.0,96,0.00,,,0.00,WeatherCatV1.00B22,2013-03-24 06:56:00,
2013-03-24 03:01:00,47.6,46.5,29.64,NE,42,9.0,11.0,96,0.00,,,0.00,WeatherCatV1.00B22,2013-03-24 07:01:00,
2013-03-24 03:06:00,47.5,46.1,29.64,NNE,22,5.0,10.0,95,0.00,,,0.00,WeatherCatV1.00B22,2013-03-24 07:06:00,
2013-03-24 03:11:00,47.5,46.4,29.64,NNE,30,11.0,11.0,96,0.00,,,0.00,WeatherCatV1.00B22,2013-03-24 07:11:00,
2013-03-24 03:16:00,47.4,46.3,29.64,NNE,30,7.0,9.0,96,0.00,,,0.00,WeatherCatV1.00B22,2013-03-24 07:16:00,
2013-03-24 03:21:00,47.4,46.3,29.64,NE,51,7.0,13.0,96,0.00,,,0.00,WeatherCatV1.00B22,2013-03-24 07:21:00,
2013-03-24 03:26:00,47.5,46.1,29.63,NNE,26,8.0,11.0,95,0.00,,,0.00,WeatherCatV1.00B22,2013-03-24 07:26:00,
2013-03-24 03:31:00,47.4,46.0,29.61,NE,36,14.0,14.0,95,0.00,,,0.00,WeatherCatV1.00B22,2013-03-24 07:31:00,
2013-03-24 03:36:00,47.4,46.0,29.62,NE,49,7.0,11.0,95,0.00,,,0.00,WeatherCatV1.00B22,2013-03-24 07:36:00,
2013-03-24 03:41:00,47.4,46.0,29.61,NE,35,11.0,15.0,95,0.00,,,0.00,WeatherCatV1.00B22,2013-03-24 07:41:00,
2013-03-24 03:46:00,47.4,46.0,29.62,NNE,21,9.0,12.0,95,0.00,,,0.00,WeatherCatV1.00B22,2013-03-24 07:46:00,
2013-03-24 03:51:00,47.3,45.9,29.63,NE,49,6.0,9.0,95,0.00,,,0.00,WeatherCatV1.00B22,2013-03-24 07:51:00,
2013-03-24 03:56:00,47.3,45.9,29.63,NE,37,10.0,13.0,95,0.00,,,0.00,WeatherCatV1.00B22,2013-03-24 07:56:00,
2013-03-24 04:01:00,47.3,45.9,29.63,NE,37,7.0,7.0,95,0.00,,,0.00,WeatherCatV1.00B22,2013-03-24 08:01:00,
2013-03-24 04:06:00,47.3,45.9,29.61,NE,51,13.0,13.0,95,0.00,,,0.00,WeatherCatV1.00B22,2013-03-24 08:06:00,
2013-03-24 04:11:00,47.3,45.9,29.59,NE,37,8.0,11.0,95,0.00,,,0.00,WeatherCatV1.00B22,2013-03-24 08:11:00,
2013-03-24 04:16:00,47.2,45.8,29.58,NE,46,12.0,12.0,95,0.00,,,0.00,WeatherCatV1.00B22,2013-03-24 08:16:00,
2013-03-24 04:21:00,47.2,45.8,29.55,NE,36,13.0,16.0,95,0.00,,,0.00,WeatherCatV1.00B22,2013-03-24 08:21:00,
2013-03-24 04:26:00,47.1,45.7,29.56,ENE,67,5.0,11.0,95,0.00,,,0.00,WeatherCatV1.00B22,2013-03-24 08:26:00,
2013-03-24 04:31:00,47.0,45.6,29.57,ENE,72,8.0,9.0,95,0.00,,,0.00,WeatherCatV1.00B22,2013-03-24 08:31:00,
2013-03-24 04:36:00,47.1,45.7,29.54,NE,48,12.0,14.0,95,0.00,,,0.00,WeatherCatV1.00B22,2013-03-24 08:36:00,
2013-03-24 04:41:00,47.1,45.7,29.54,ENE,70,7.0,11.0,95,0.00,,,0.00,WeatherCatV1.00B22,2013-03-24 08:41:00,
2013-03-24 04:46:00,47.2,45.8,29.52,ENE,57,13.0,15.0,95,0.00,,,0.00,WeatherCatV1.00B22,2013-03-24 08:46:00,
2013-03-24 04:51:00,47.2,45.8,29.53,ENE,59,7.0,11.0,95,0.00,,,0.00,WeatherCatV1.00B22,2013-03-24 08:51:00,
2013-03-24 04:56:00,47.1,45.7,29.51,NE,48,10.0,15.0,95,0.00,,,0.00,WeatherCatV1.00B22,2013-03-24 08:56:00,
2013-03-24 05:01:00,47.1,45.7,29.51,ENE,65,10.0,13.0,95,0.00,,,0.00,WeatherCatV1.00B22,2013-03-24 09:01:00,
2013-03-24 05:06:00,47.2,45.8,29.53,NE,50,6.0,7.0,95,0.00,,,0.00,WeatherCatV1.00B22,2013-03-24 09:06:00,
2013-03-24 05:11:00,47.2,45.8,29.53,East,82,6.0,8.0,95,0.00,,,0.00,WeatherCatV1.00B22,2013-03-24 09:11:00,
2013-03-24 05:16:00,47.2,45.8,29.51,ENE,78,9.0,9.0,95,0.00,,,0.00,WeatherCatV1.00B22,2013-03-24 09:16:00,
2013-03-24 05:21:00,47.3,46.2,29.51,East,87,8.0,10.0,96,0.00,,,0.00,WeatherCatV1.00B22,2013-03-24 09:21:00,
2013-03-24 05:26:00,47.3,46.2,29.50,East,79,7.0,12.0,96,0.00,,,0.00,WeatherCatV1.00B22,2013-03-24 09:26:00,
2013-03-24 05:31:00,47.3,45.9,29.51,East,86,8.0,13.0,95,0.00,,,0.00,WeatherCatV1.00B22,2013-03-24 09:31:00,
2013-03-24 05:36:00,47.3,45.9,29.50,East,86,9.0,12.0,95,0.00,,,0.00,WeatherCatV1.00B22,2013-03-24 09:36:00,
2013-03-24 05:41:00,47.3,45.9,29.48,East,82,8.0,15.0,95,0.00,,,0.00,WeatherCatV1.00B22,2013-03-24 09:41:00,
2013-03-24 05:46:00,47.2,45.8,29.48,ENE,66,10.0,11.0,95,0.00,,,0.00,WeatherCatV1.00B22,2013-03-24 09:46:00,
2013-03-24 05:51:00,47.3,45.9,29.48,East,81,7.0,11.0,95,0.00,,,0.00,WeatherCatV1.00B22,2013-03-24 09:51:00,
2013-03-24 05:56:00,47.2,45.8,29.48,East,97,6.0,10.0,95,0.00,,,0.00,WeatherCatV1.00B22,2013-03-24 09:56:00,
2013-03-24 06:01:00,47.3,45.9,29.48,NE,48,7.0,10.0,95,0.00,,,0.00,WeatherCatV1.00B22,2013-03-24 10:01:00,
2013-03-24 06:06:00,47.3,45.9,29.46,East,82,11.0,15.0,95,0.00,,,0.00,WeatherCatV1.00B22,2013-03-24 10:06:00,
2013-03-24 06:11:00,47.3,45.9,29.45,ENE,64,12.0,14.0,95,0.00,,,0.00,WeatherCatV1.00B22,2013-03-24 10:11:00,
2013-03-24 06:16:00,47.3,46.2,29.46,East,92,8.0,12.0,96,0.00,,,0.00,WeatherCatV1.00B22,2013-03-24 10:16:00,
2013-03-24 06:21:00,47.3,46.2,29.49,ESE,103,5.0,8.0,96,0.00,,,0.00,WeatherCatV1.00B22,2013-03-24 10:21:00,
2013-03-24 06:26:00,47.4,46.3,29.51,NNE,24,8.0,9.0,96,0.00,,,0.00,WeatherCatV1.00B22,2013-03-24 10:26:00,
2013-03-24 06:31:00,47.4,46.3,29.51,NE,44,13.0,13.0,96,0.00,,,0.00,WeatherCatV1.00B22,2013-03-24 10:31:00,
2013-03-24 06:36:00,47.4,46.3,29.50,NE,49,4.0,10.0,96,0.00,,,0.00,WeatherCatV1.00B22,2013-03-24 10:36:00,
2013-03-24 06:41:00,47.4,46.3,29.53,NW,313,4.0,9.0,96,0.00,,,0.00,WeatherCatV1.00B22,2013-03-24 10:41:00,
2013-03-24 06:46:00,47.3,46.2,29.54,North,9,1.0,4.0,96,0.00,,,0.00,WeatherCatV1.00B22,2013-03-24 10:46:00,
2013-03-24 06:51:00,47.3,46.2,29.52,NNW,337,6.0,8.0,96,0.00,,,0.00,WeatherCatV1.00B22,2013-03-24 10:51:00,
2013-03-24 06:56:00,47.3,46.2,29.52,North,5,4.0,6.0,96,0.00,,,0.00,WeatherCatV1.00B22,2013-03-24 10:56:00,
2013-03-24 07:01:00,47.3,45.9,29.53,North,351,2.0,4.0,95,0.00,,,0.00,WeatherCatV1.00B22,2013-03-24 11:01:00,
2013-03-24 07:06:00,47.4,46.0,29.50,NE,46,7.0,9.0,95,0.00,,,0.00,WeatherCatV1.00B22,2013-03-24 11:06:00,
2013-03-24 07:11:00,47.5,46.1,29.51,ENE,76,2.0,5.0,95,0.00,,,0.00,WeatherCatV1.00B22,2013-03-24 11:11:00,
2013-03-24 07:16:00,47.5,46.1,29.52,NE,40,5.0,5.0,95,0.00,,,0.00,WeatherCatV1.00B22,2013-03-24 11:16:00,
2013-03-24 07:21:00,47.6,46.2,29.53,East,82,0.0,2.0,95,0.00,,,0.00,WeatherCatV1.00B22,2013-03-24 11:21:00,
2013-03-24 07:26:00,47.6,46.2,29.52,NE,54,4.0,4.0,95,0.00,,,0.00,WeatherCatV1.00B22,2013-03-24 11:26:00,
2013-03-24 07:31:00,47.7,46.3,29.52,East,85,5.0,5.0,95,0.00,,,0.00,WeatherCatV1.00B22,2013-03-24 11:31:00,
2013-03-24 07:36:00,47.7,46.3,29.51,NE,41,6.0,6.0,95,0.00,,,0.00,WeatherCatV1.00B22,2013-03-24 11:36:00,
2013-03-24 07:41:00,47.6,46.2,29.50,NE,45,5.0,9.0,95,0.00,,,0.00,WeatherCatV1.00B22,2013-03-24 11:41:00,
2013-03-24 07:46:00,47.6,46.2,29.50,ENE,61,5.0,10.0,95,0.00,,,0.00,WeatherCatV1.00B22,2013-03-24 11:46:00,
2013-03-24 07:51:00,47.5,46.1,29.49,NE,34,6.0,9.0,95,0.00,,,0.00,WeatherCatV1.00B22,2013-03-24 11:51:00,
2013-03-24 07:56:00,47.4,45.8,29.50,NE,53,5.0,8.0,94,0.00,,,0.00,WeatherCatV1.00B22,2013-03-24 11:56:00,
2013-03-24 08:01:00,47.3,45.7,29.50,NNE,30,9.0,12.0,94,0.00,,,0.00,WeatherCatV1.00B22,2013-03-24 12:01:00,
2013-03-24 08:06:00,47.3,45.7,29.49,NE,38,10.0,13.0,94,0.00,,,0.00,WeatherCatV1.00B22,2013-03-24 12:06:00,
2013-03-24 08:11:00,47.3,45.7,29.50,ENE,59,4.0,9.0,94,0.00,,,0.00,WeatherCatV1.00B22,2013-03-24 12:11:00,
2013-03-24 08:16:00,47.3,45.9,29.49,NE,38,6.0,9.0,95,0.00,,,0.00,WeatherCatV1.00B22,2013-03-24 12:16:00,
2013-03-24 08:21:00,47.2,45.8,29.48,NE,50,5.0,9.0,95,0.00,,,0.00,WeatherCatV1.00B22,2013-03-24 12:21:00,
2013-03-24 08:26:00,47.2,45.8,29.48,NNE,28,6.0,9.0,95,0.00,,,0.00,WeatherCatV1.00B22,2013-03-24 12:26:00,
2013-03-24 08:31:00,47.2,45.8,29.48,NE,47,6.0,7.0,95,0.00,,,0.00,WeatherCatV1.00B22,2013-03-24 12:31:00,
2013-03-24 08:36:00,47.2,45.8,29.48,NE,42,6.0,8.0,95,0.00,,,0.00,WeatherCatV1.00B22,2013-03-24 12:36:00,
2013-03-24 08:41:00,47.2,45.8,29.48,NE,46,6.0,9.0,95,0.00,,,0.00,WeatherCatV1.00B22,2013-03-24 12:41:00,
2013-03-24 08:46:00,47.2,45.8,29.48,NE,43,6.0,7.0,95,0.00,,,0.00,WeatherCatV1.00B22,2013-03-24 12:46:00,
2013-03-24 08:51:00,47.2,45.8,29.48,East,80,5.0,8.0,95,0.00,,,0.00,WeatherCatV1.00B22,2013-03-24 12:51:00,
2013-03-24 08:56:00,47.2,45.8,29.49,NE,50,8.0,9.0,95,0.00,,,0.00,WeatherCatV1.00B22,2013-03-24 12:56:00,
2013-03-24 09:01:00,47.1,45.5,29.49,NNE,26,12.0,14.0,94,0.00,,,0.00,WeatherCatV1.00B22,2013-03-24 13:01:00,
2013-03-24 09:06:00,47.1,45.2,29.49,NE,36,8.0,11.0,93,0.00,,,0.00,WeatherCatV1.00B22,2013-03-24 13:06:00,
2013-03-24 09:11:00,47.1,45.2,29.50,NE,52,9.0,9.0,93,0.00,,,0.00,WeatherCatV1.00B22,2013-03-24 13:11:00,
2013-03-24 09:16:00,47.1,44.9,29.50,NE,39,7.0,12.0,92,0.00,,,0.00,WeatherCatV1.00B22,2013-03-24 13:16:00,
2013-03-24 09:21:00,47.0,44.8,29.51,NE,44,7.0,8.0,92,0.00,,,0.00,WeatherCatV1.00B22,2013-03-24 13:21:00,
2013-03-24 09:26:00,47.0,45.1,29.51,NE,51,8.0,10.0,93,0.00,,,0.00,WeatherCatV1.00B22,2013-03-24 13:26:00,
2013-03-24 09:31:00,46.9,45.0,29.51,ENE,66,7.0,8.0,93,0.00,,,0.00,WeatherCatV1.00B22,2013-03-24 13:31:00,
2013-03-24 09:36:00,46.9,45.0,29.51,ENE,60,5.0,10.0,93,0.00,,,0.00,WeatherCatV1.00B22,2013-03-24 13:36:00,
2013-03-24 09:41:00,46.8,44.6,29.51,NE,36,7.0,14.0,92,0.00,,,0.00,WeatherCatV1.00B22,2013-03-24 13:41:00,
2013-03-24 09:46:00,46.7,44.8,29.51,NE,38,5.0,7.0,93,0.00,,,0.00,WeatherCatV1.00B22,2013-03-24 13:46:00,
2013-03-24 09:51:00,46.6,44.7,29.51,NE,44,7.0,11.0,93,0.00,,,0.00,WeatherCatV1.00B22,2013-03-24 13:51:00,
2013-03-24 09:56:00,46.5,44.6,29.51,NE,52,4.0,10.0,93,0.00,,,0.00,WeatherCatV1.00B22,2013-03-24 13:56:00,
2013-03-24 10:01:00,46.4,44.5,29.51,NE,38,5.0,7.0,93,0.00,,,0.00,WeatherCatV1.00B22,2013-03-24 14:01:00,
2013-03-24 10:06:00,46.3,44.4,29.51,NE,44,7.0,14.0,93,0.00,,,0.00,WeatherCatV1.00B22,2013-03-24 14:06:00,
2013-03-24 10:11:00,46.4,44.8,29.51,NNE,31,8.0,9.0,94,0.00,,,0.00,WeatherCatV1.00B22,2013-03-24 14:11:00,
2013-03-24 10:16:00,46.3,44.4,29.51,NE,50,6.0,8.0,93,0.00,,,0.00,WeatherCatV1.00B22,2013-03-24 14:16:00,
2013-03-24 10:21:00,46.3,44.7,29.51,NE,46,8.0,9.0,94,0.00,,,0.00,WeatherCatV1.00B22,2013-03-24 14:21:00,
2013-03-24 10:26:00,46.4,44.5,29.52,ENE,76,7.0,9.0,93,0.00,,,0.00,WeatherCatV1.00B22,2013-03-24 14:26:00,
2013-03-24 10:31:00,46.4,44.8,29.51,ENE,59,8.0,9.0,94,0.00,,,0.00,WeatherCatV1.00B22,2013-03-24 14:31:00,
2013-03-24 10:36:00,46.4,44.8,29.51,NE,46,9.0,11.0,94,0.00,,,0.00,WeatherCatV1.00B22,2013-03-24 14:36:00,
2013-03-24 10:41:00,46.4,44.5,29.51,NE,45,7.0,12.0,93,0.00,,,0.00,WeatherCatV1.00B22,2013-03-24 14:41:00,
2013-03-24 10:46:00,46.4,44.8,29.52,NE,34,7.0,7.0,94,0.00,,,0.00,WeatherCatV1.00B22,2013-03-24 14:46:00,
2013-03-24 10:51:00,46.4,44.5,29.52,NE,54,5.0,7.0,93,0.00,,,0.00,WeatherCatV1.00B22,2013-03-24 14:51:00,
2013-03-24 10:56:00,46.5,44.6,29.52,NE,41,7.0,9.0,93,0.00,,,0.00,WeatherCatV1.00B22,2013-03-24 14:56:00,
2013-03-24 11:01:00,46.5,44.6,29.52,NE,51,10.0,10.0,93,0.00,,,0.00,WeatherCatV1.00B22,2013-03-24 15:01:00,
2013-03-24 11:06:00,46.5,44.3,29.52,NE,38,13.0,13.0,92,0.00,,,0.00,WeatherCatV1.00B22,2013-03-24 15:06:00,
2013-03-24 11:11:00,46.5,44.3,29.52,ENE,58,5.0,9.0,92,0.00,,,0.00,WeatherCatV1.00B22,2013-03-24 15:11:00,
2013-03-24 11:16:00,46.5,44.6,29.52,East,90,5.0,8.0,93,0.00,,,0.00,WeatherCatV1.00B22,2013-03-24 15:16:00,
2013-03-24 11:21:00,46.5,44.6,29.52,NE,54,6.0,7.0,93,0.00,,,0.00,WeatherCatV1.00B22,2013-03-24 15:21:00,
2013-03-24 11:26:00,46.5,44.3,29.53,NE,41,6.0,10.0,92,0.00,,,0.00,WeatherCatV1.00B22,2013-03-24 15:26:00,
2013-03-24 11:31:00,46.5,44.3,29.54,NE,51,5.0,6.0,92,0.00,,,0.00,WeatherCatV1.00B22,2013-03-24 15:31:00,
2013-03-24 11:36:00,46.5,44.3,29.54,NE,34,5.0,6.0,92,0.00,,,0.00,WeatherCatV1.00B22,2013-03-24 15:36:00,
2013-03-24 11:41:00,46.5,44.3,29.54,ENE,78,3.0,8.0,92,0.00,,,0.00,WeatherCatV1.00B22,2013-03-24 15:41:00,
2013-03-24 11:46:00,46.5,44.6,29.53,ENE,57,7.0,8.0,93,0.00,,,0.00,WeatherCatV1.00B22,2013-03-24 15:46:00,
2013-03-24 11:51:00,46.5,44.6,29.53,NE,51,6.0,8.0,93,0.00,,,0.00,WeatherCatV1.00B22,2013-03-24 15:51:00,
2013-03-24 11:56:00,46.5,44.6,29.53,ENE,78,5.0,7.0,93,0.00,,,0.00,WeatherCatV1.00B22,2013-03-24 15:56:00,
2013-03-24 12:01:00,46.5,44.6,29.53,NE,39,8.0,9.0,93,0.00,,,0.00,WeatherCatV1.00B22,2013-03-24 16:01:00,
2013-03-24 12:06:00,46.5,44.6,29.53,NE,49,5.0,9.0,93,0.00,,,0.00,WeatherCatV1.00B22,2013-03-24 16:06:00,
2013-03-24 12:11:00,46.4,44.5,29.53,NE,35,8.0,11.0,93,0.00,,,0.00,WeatherCatV1.00B22,2013-03-24 16:11:00,
2013-03-24 12:16:00,46.4,44.5,29.53,East,80,7.0,7.0,93,0.00,,,0.00,WeatherCatV1.00B22,2013-03-24 16:16:00,
2013-03-24 12:21:00,46.5,44.9,29.52,ENE,59,4.0,10.0,94,0.00,,,0.00,WeatherCatV1.00B22,2013-03-24 16:21:00,
2013-03-24 12:26:00,46.5,44.6,29.52,NE,43,11.0,11.0,93,0.00,,,0.00,WeatherCatV1.00B22,2013-03-24 16:26:00,
2013-03-24 12:31:00,46.5,44.6,29.52,NE,55,6.0,8.0,93,0.00,,,0.00,WeatherCatV1.00B22,2013-03-24 16:31:00,
2013-03-24 12:36:00,46.7,44.5,29.52,ENE,58,4.0,9.0,92,0.00,,,0.00,WeatherCatV1.00B22,2013-03-24 16:36:00,
2013-03-24 12:41:00,46.8,44.6,29.50,ENE,65,5.0,8.0,92,0.00,,,0.00,WeatherCatV1.00B22,2013-03-24 16:41:00,
2013-03-24 12:46:00,47.0,44.8,29.50,ENE,58,7.0,7.0,92,0.00,,,0.00,WeatherCatV1.00B22,2013-03-24 16:46:00,
2013-03-24 12:51:00,47.2,45.0,29.50,NE,55,7.0,7.0,92,0.00,,,0.00,WeatherCatV1.00B22,2013-03-24 16:51:00,
2013-03-24 12:56:00,47.4,44.9,29.49,ENE,77,5.0,9.0,91,0.00,,,0.00,WeatherCatV1.00B22,2013-03-24 16:56:00,
2013-03-24 13:01:00,47.6,44.8,29.48,ENE,78,10.0,11.0,90,0.00,,,0.00,WeatherCatV1.00B22,2013-03-24 17:01:00,
2013-03-24 13:06:00,47.6,44.8,29.48,East,94,5.0,11.0,90,0.00,,,0.00,WeatherCatV1.00B22,2013-03-24 17:06:00,
2013-03-24 13:11:00,47.7,44.9,29.49,NE,43,8.0,8.0,90,0.00,,,0.00,WeatherCatV1.00B22,2013-03-24 17:11:00,
2013-03-24 13:16:00,47.7,44.6,29.49,ENE,76,4.0,10.0,89,0.00,,,0.00,WeatherCatV1.00B22,2013-03-24 17:16:00,
2013-03-24 13:21:00,47.8,44.7,29.49,ENE,60,8.0,8.0,89,0.00,,,0.00,WeatherCatV1.00B22,2013-03-24 17:21:00,
2013-03-24 13:26:00,47.8,45.0,29.49,ESE,113,7.0,8.0,90,0.00,,,0.00,WeatherCatV1.00B22,2013-03-24 17:26:00,
2013-03-24 13:31:00,47.8,44.7,29.48,ENE,67,4.0,7.0,89,0.00,,,0.00,WeatherCatV1.00B22,2013-03-24 17:31:00,
2013-03-24 13:36:00,47.9,44.8,29.48,ENE,76,5.0,12.0,89,0.00,,,0.00,WeatherCatV1.00B22,2013-03-24 17:36:00,
2013-03-24 13:41:00,47.9,44.8,29.47,NE,51,9.0,11.0,89,0.00,,,0.00,WeatherCatV1.00B22,2013-03-24 17:41:00,
2013-03-24 13:46:00,48.1,45.3,29.47,NE,38,7.0,8.0,90,0.00,,,0.00,WeatherCatV1.00B22,2013-03-24 17:46:00,
2013-03-24 13:51:00,48.1,45.0,29.48,East,96,6.0,7.0,89,0.00,,,0.00,WeatherCatV1.00B22,2013-03-24 17:51:00,
2013-03-24 13:56:00,48.1,44.4,29.48,NE,41,9.0,10.0,87,0.00,,,0.00,WeatherCatV1.00B22,2013-03-24 17:56:00,
2013-03-24 14:01:00,48.1,44.7,29.48,East,96,3.0,5.0,88,0.00,,,0.00,WeatherCatV1.00B22,2013-03-24 18:01:00,
2013-03-24 14:06:00,48.2,45.1,29.48,East,96,5.0,8.0,89,0.00,,,0.00,WeatherCatV1.00B22,2013-03-24 18:06:00,
2013-03-24 14:11:00,48.3,44.9,29.48,ENE,62,5.0,9.0,88,0.00,,,0.00,WeatherCatV1.00B22,2013-03-24 18:11:00,
2013-03-24 14:16:00,48.3,44.6,29.48,East,101,7.0,9.0,87,0.00,,,0.00,WeatherCatV1.00B22,2013-03-24 18:16:00,
2013-03-24 14:21:00,48.4,44.7,29.47,East,82,5.0,9.0,87,0.00,,,0.00,WeatherCatV1.00B22,2013-03-24 18:21:00,
2013-03-24 14:26:00,48.4,44.4,29.47,NE,53,4.0,5.0,86,0.00,,,0.00,WeatherCatV1.00B22,2013-03-24 18:26:00,
2013-03-24 14:31:00,48.3,44.6,29.47,ESE,118,4.0,8.0,87,0.00,,,0.00,WeatherCatV1.00B22,2013-03-24 18:31:00,
2013-03-24 14:36:00,48.3,44.6,29.47,East,92,5.0,5.0,87,0.00,,,0.00,WeatherCatV1.00B22,2013-03-24 18:36:00,
2013-03-24 14:41:00,48.3,44.6,29.46,ENE,66,4.0,5.0,87,0.00,,,0.00,WeatherCatV1.00B22,2013-03-24 18:41:00,
2013-03-24 14:46:00,48.3,44.6,29.46,ENE,76,4.0,7.0,87,0.00,,,0.00,WeatherCatV1.00B22,2013-03-24 18:46:00,
2013-03-24 14:51:00,48.4,44.4,29.46,ESE,103,7.0,9.0,86,0.00,,,0.00,WeatherCatV1.00B22,2013-03-24 18:51:00,
2013-03-24 14:56:00,48.4,44.4,29.46,ENE,65,3.0,8.0,86,0.00,,,0.00,WeatherCatV1.00B22,2013-03-24 18:56:00,
2013-03-24 15:01:00,48.4,44.4,29.45,ESE,108,3.0,5.0,86,0.00,,,0.00,WeatherCatV1.00B22,2013-03-24 19:01:00,
2013-03-24 15:06:00,48.5,44.8,29.45,East,99,1.0,5.0,87,0.00,,,0.00,WeatherCatV1.00B22,2013-03-24 19:06:00,
2013-03-24 15:11:00,48.5,44.8,29.46,SE,142,2.0,5.0,87,0.00,,,0.00,WeatherCatV1.00B22,2013-03-24 19:11:00,
2013-03-24 15:16:00,48.5,44.5,29.46,SE,143,1.0,3.0,86,0.00,,,0.00,WeatherCatV1.00B22,2013-03-24 19:16:00,
2013-03-24 15:21:00,48.5,45.1,29.47,SSE,154,1.0,3.0,88,0.00,,,0.00,WeatherCatV1.00B22,2013-03-24 19:21:00,
2013-03-24 15:26:00,48.5,44.8,29.46,SSE,167,2.0,3.0,87,0.00,,,0.00,WeatherCatV1.00B22,2013-03-24 19:26:00,
2013-03-24 15:31:00,48.6,45.5,29.46,SSE,156,1.0,2.0,89,0.00,,,0.00,WeatherCatV1.00B22,2013-03-24 19:31:00,
2013-03-24 15:36:00,48.7,45.6,29.46,SSE,154,1.0,3.0,89,0.00,,,0.00,WeatherCatV1.00B22,2013-03-24 19:36:00,
2013-03-24 15:41:00,48.8,45.4,29.46,SSW,212,0.0,2.0,88,0.00,,,0.00,WeatherCatV1.00B22,2013-03-24 19:41:00,
2013-03-24 15:46:00,48.9,45.2,29.46,SW,214,1.0,2.0,87,0.00,,,0.00,WeatherCatV1.00B22,2013-03-24 19:46:00,
2013-03-24 15:51:00,48.9,45.2,29.46,South,181,1.0,2.0,87,0.00,,,0.00,WeatherCatV1.00B22,2013-03-24 19:51:00,
2013-03-24 15:56:00,48.9,45.5,29.45,South,180,1.0,1.0,88,0.00,,,0.00,WeatherCatV1.00B22,2013-03-24 19:56:00,
2013-03-24 16:01:00,48.9,45.5,29.45,SSE,157,2.0,3.0,88,0.00,,,0.00,WeatherCatV1.00B22,2013-03-24 20:01:00,
2013-03-24 16:06:00,48.9,44.9,29.45,SSE,165,1.0,2.0,86,0.00,,,0.00,WeatherCatV1.00B22,2013-03-24 20:06:00,
2013-03-24 16:11:00,48.9,45.2,29.44,South,171,1.0,3.0,87,0.00,,,0.00,WeatherCatV1.00B22,2013-03-24 20:11:00,
2013-03-24 16:16:00,48.8,44.8,29.44,SSE,155,0.0,3.0,86,0.00,,,0.00,WeatherCatV1.00B22,2013-03-24 20:16:00,
2013-03-24 16:21:00,48.7,45.0,29.44,SSW,202,1.0,1.0,87,0.00,,,0.00,WeatherCatV1.00B22,2013-03-24 20:21:00,
2013-03-24 16:26:00,48.7,45.0,29.44,SSW,202,1.0,1.0,87,0.00,,,0.00,WeatherCatV1.00B22,2013-03-24 20:26:00,
2013-03-24 16:31:00,48.7,45.3,29.45,South,176,0.0,2.0,88,0.00,,,0.00,WeatherCatV1.00B22,2013-03-24 20:31:00,
2013-03-24 16:36:00,48.7,45.0,29.45,South,176,0.0,0.0,87,0.00,,,0.00,WeatherCatV1.00B22,2013-03-24 20:36:00,
2013-03-24 16:42:00,48.6,44.9,29.45,SW,236,1.0,2.0,87,0.00,,,0.00,WeatherCatV1.00B22,2013-03-24 20:42:00,
2013-03-24 16:47:00,48.6,44.6,29.45,SSW,196,0.0,2.0,86,0.00,,,0.00,WeatherCatV1.00B22,2013-03-24 20:47:00,
2013-03-24 16:52:00,48.7,44.7,29.44,South,187,1.0,3.0,86,0.00,,,0.00,WeatherCatV1.00B22,2013-03-24 20:52:00,
2013-03-24 16:57:00,48.7,45.0,29.44,South,180,1.0,1.0,87,0.00,,,0.00,WeatherCatV1.00B22,2013-03-24 20:57:00,
2013-03-24 17:02:00,48.7,45.0,29.44,SSE,165,2.0,2.0,87,0.00,,,0.00,WeatherCatV1.00B22,2013-03-24 21:02:00,
2013-03-24 17:07:00,48.7,45.3,29.43,SSE,163,1.0,2.0,88,0.00,,,0.00,WeatherCatV1.00B22,2013-03-24 21:07:00,
2013-03-24 17:12:00,48.8,45.1,29.43,SSW,194,2.0,3.0,87,0.00,,,0.00,WeatherCatV1.00B22,2013-03-24 21:12:00,
2013-03-24 17:17:00,48.7,45.0,29.43,SSW,194,1.0,2.0,87,0.00,,,0.00,WeatherCatV1.00B22,2013-03-24 21:17:00,
2013-03-24 17:22:00,48.7,45.0,29.44,SSW,194,1.0,2.0,87,0.00,,,0.00,WeatherCatV1.00B22,2013-03-24 21:22:00,
2013-03-24 17:27:00,48.7,45.0,29.43,SSW,194,1.0,3.0,87,0.00,,,0.00,WeatherCatV1.00B22,2013-03-24 21:27:00,
2013-03-24 17:32:00,48.6,45.2,29.43,SSE,156,2.0,2.0,88,0.00,,,0.00,WeatherCatV1.00B22,2013-03-24 21:32:00,
2013-03-24 17:37:00,48.5,45.1,29.42,ESE,113,3.0,4.0,88,0.00,,,0.00,WeatherCatV1.00B22,2013-03-24 21:37:00,
2013-03-24 17:42:00,48.2,44.8,29.42,SE,128,0.0,2.0,88,0.00,,,0.00,WeatherCatV1.00B22,2013-03-24 21:42:00,
2013-03-24 17:47:00,48.0,44.6,29.43,SE,132,1.0,3.0,88,0.00,,,0.00,WeatherCatV1.00B22,2013-03-24 21:47:00,
2013-03-24 17:52:00,47.8,44.7,29.43,SSE,161,1.0,3.0,89,0.00,,,0.00,WeatherCatV1.00B22,2013-03-24 21:52:00,
2013-03-24 17:57:00,47.7,44.9,29.43,ESE,110,4.0,4.0,90,0.00,,,0.00,WeatherCatV1.00B22,2013-03-24 21:57:00,
2013-03-24 18:02:00,47.5,44.7,29.42,ESE,111,2.0,5.0,90,0.00,,,0.00,WeatherCatV1.00B22,2013-03-24 22:02:00,
2013-03-24 18:07:00,47.4,44.6,29.42,ESE,107,2.0,4.0,90,0.00,,,0.00,WeatherCatV1.00B22,2013-03-24 22:07:00,
2013-03-24 18:12:00,47.2,44.4,29.41,SE,138,1.0,2.0,90,0.00,,,0.00,WeatherCatV1.00B22,2013-03-24 22:12:00,
2013-03-24 18:17:00,47.1,44.6,29.41,ESE,111,3.0,5.0,91,0.00,,,0.00,WeatherCatV1.00B22,2013-03-24 22:17:00,
2013-03-24 18:22:00,47.0,44.5,29.41,ESE,118,2.0,4.0,91,0.00,,,0.00,WeatherCatV1.00B22,2013-03-24 22:22:00,
2013-03-24 18:27:00,47.0,44.5,29.42,SSE,150,2.0,6.0,91,0.00,,,0.00,WeatherCatV1.00B22,2013-03-24 22:27:00,
2013-03-24 18:32:00,46.9,44.7,29.41,ESE,117,0.0,3.0,92,0.00,,,0.00,WeatherCatV1.00B22,2013-03-24 22:32:00,
2013-03-24 18:37:00,46.9,44.7,29.40,East,101,5.0,5.0,92,0.00,,,0.00,WeatherCatV1.00B22,2013-03-24 22:37:00,
2013-03-24 18:42:00,46.8,44.6,29.40,SSE,157,1.0,3.0,92,0.00,,,0.00,WeatherCatV1.00B22,2013-03-24 22:42:00,
2013-03-24 18:47:00,46.7,44.5,29.40,ESE,114,3.0,4.0,92,0.00,,,0.00,WeatherCatV1.00B22,2013-03-24 22:47:00,
2013-03-24 18:52:00,46.6,44.1,29.40,ESE,116,2.0,4.0,91,0.00,,,0.00,WeatherCatV1.00B22,2013-03-24 22:52:00,
2013-03-24 18:57:00,46.6,44.4,29.40,ESE,110,4.0,4.0,92,0.00,,,0.00,WeatherCatV1.00B22,2013-03-24 22:57:00,
2013-03-24 19:02:00,46.5,44.3,29.40,SSE,154,2.0,4.0,92,0.00,,,0.00,WeatherCatV1.00B22,2013-03-24 23:02:00,
2013-03-24 19:07:00,46.5,44.3,29.41,SSE,154,0.0,2.0,92,0.00,,,0.00,WeatherCatV1.00B22,2013-03-24 23:07:00,
2013-03-24 19:12:00,46.5,44.3,29.41,SSE,154,0.0,0.0,92,0.00,,,0.00,WeatherCatV1.00B22,2013-03-24 23:12:00,
2013-03-24 19:17:00,46.5,44.3,29.41,SE,146,1.0,1.0,92,0.00,,,0.00,WeatherCatV1.00B22,2013-03-24 23:17:00,
2013-03-24 19:22:00,46.4,44.2,29.41,SSE,154,0.0,1.0,92,0.00,,,0.00,WeatherCatV1.00B22,2013-03-24 23:22:00,
2013-03-24 19:27:00,46.4,44.2,29.40,ESE,120,2.0,4.0,92,0.00,,,0.00,WeatherCatV1.00B22,2013-03-24 23:27:00,
2013-03-24 19:32:00,46.4,44.2,29.40,ESE,109,4.0,5.0,92,0.00,,,0.00,WeatherCatV1.00B22,2013-03-24 23:32:00,
2013-03-24 19:37:00,46.3,44.1,29.41,ESE,114,2.0,2.0,92,0.00,,,0.00,WeatherCatV1.00B22,2013-03-24 23:37:00,
2013-03-24 19:42:00,46.3,44.1,29.41,ESE,113,0.0,0.0,92,0.00,,,0.00,WeatherCatV1.00B22,2013-03-24 23:42:00,
2013-03-24 19:47:00,46.3,44.4,29.42,SE,124,0.0,1.0,93,0.00,,,0.00,WeatherCatV1.00B22,2013-03-24 23:47:00,
2013-03-24 19:52:00,46.3,44.7,29.43,NNW,338,0.0,0.0,94,0.00,,,0.00,WeatherCatV1.00B22,2013-03-24 23:52:00,
2013-03-24 19:57:00,46.3,44.7,29.44,NNW,338,1.0,2.0,94,0.00,,,0.00,WeatherCatV1.00B22,2013-03-24 23:57:00,
2013-03-24 20:02:00,46.2,44.8,29.44,NNW,338,0.0,1.0,95,0.00,,,0.00,WeatherCatV1.00B22,2013-03-25 00:02:00,
2013-03-24 20:07:00,46.1,44.7,29.45,NNW,338,0.0,1.0,95,0.00,,,0.00,WeatherCatV1.00B22,2013-03-25 00:07:00,
2013-03-24 20:12:00,46.1,44.7,29.45,NNW,338,0.0,0.0,95,0.00,,,0.00,WeatherCatV1.00B22,2013-03-25 00:12:00,
2013-03-24 20:17:00,46.1,44.7,29.45,NNW,338,0.0,0.0,95,0.00,,,0.00,WeatherCatV1.00B22,2013-03-25 00:17:00,
2013-03-24 20:22:00,46.1,44.7,29.45,ESE,110,1.0,2.0,95,0.00,,,0.00,WeatherCatV1.00B22,2013-03-25 00:22:00,
2013-03-24 20:27:00,46.1,44.7,29.45,SE,126,1.0,2.0,95,0.00,,,0.00,WeatherCatV1.00B22,2013-03-25 00:27:00,
2013-03-24 20:32:00,46.1,45.0,29.45,SE,126,1.0,2.0,96,0.00,,,0.00,WeatherCatV1.00B22,2013-03-25 00:32:00,
2013-03-24 20:37:00,46.1,45.0,29.45,SE,132,2.0,4.0,96,0.00,,,0.00,WeatherCatV1.00B22,2013-03-25 00:37:00,
2013-03-24 20:42:00,46.1,45.0,29.45,South,185,0.0,1.0,96,0.00,,,0.00,WeatherCatV1.00B22,2013-03-25 00:42:00,
2013-03-24 20:47:00,46.1,45.0,29.45,SW,234,0.0,1.0,96,0.00,,,0.00,WeatherCatV1.00B22,2013-03-25 00:47:00,
2013-03-24 20:52:00,46.1,45.0,29.46,SW,234,1.0,1.0,96,0.00,,,0.00,WeatherCatV1.00B22,2013-03-25 00:52:00,
2013-03-24 20:57:00,46.0,44.9,29.46,SW,234,0.0,0.0,96,0.00,,,0.00,WeatherCatV1.00B22,2013-03-25 00:57:00,
2013-03-24 21:02:00,46.0,44.9,29.46,SW,234,0.0,0.0,96,0.00,,,0.00,WeatherCatV1.00B22,2013-03-25 01:02:00,
2013-03-24 21:07:00,45.9,44.8,29.46,SW,234,0.0,0.0,96,0.00,,,0.00,WeatherCatV1.00B22,2013-03-25 01:07:00,
2013-03-24 21:12:00,45.8,44.7,29.46,SW,234,0.0,0.0,96,0.00,,,0.00,WeatherCatV1.00B22,2013-03-25 01:12:00,
2013-03-24 21:17:00,45.7,44.6,29.46,SW,234,0.0,0.0,96,0.00,,,0.00,WeatherCatV1.00B22,2013-03-25 01:17:00,
2013-03-24 21:22:00,45.5,44.2,29.46,SW,234,0.0,0.0,95,0.00,,,0.00,WeatherCatV1.00B22,2013-03-25 01:22:00,
2013-03-24 21:27:00,45.4,44.1,29.46,SW,234,0.0,0.0,95,0.00,,,0.00,WeatherCatV1.00B22,2013-03-25 01:27:00,
2013-03-24 21:32:00,45.2,43.9,29.46,SW,234,0.0,0.0,95,0.00,,,0.00,WeatherCatV1.00B22,2013-03-25 01:32:00,
2013-03-24 21:37:00,45.1,43.8,29.47,SW,234,0.0,0.0,95,0.00,,,0.00,WeatherCatV1.00B22,2013-03-25 01:37:00,
2013-03-24 21:42:00,45.0,43.7,29.47,SW,234,0.0,0.0,95,0.00,,,0.00,WeatherCatV1.00B22,2013-03-25 01:42:00,
2013-03-24 21:47:00,44.9,43.6,29.46,SW,234,0.0,0.0,95,0.00,,,0.00,WeatherCatV1.00B22,2013-03-25 01:47:00,
2013-03-24 21:52:00,44.7,43.4,29.46,SW,234,0.0,0.0,95,0.00,,,0.00,WeatherCatV1.00B22,2013-03-25 01:52:00,
2013-03-24 21:57:00,44.7,43.4,29.47,SW,234,0.0,0.0,95,0.00,,,0.00,WeatherCatV1.00B22,2013-03-25 01:57:00,
2013-03-24 22:02:00,44.6,43.5,29.47,SW,234,0.0,0.0,96,0.00,,,0.00,WeatherCatV1.00B22,2013-03-25 02:02:00,
2013-03-24 22:07:00,44.6,43.5,29.47,SW,234,0.0,0.0,96,0.00,,,0.00,WeatherCatV1.00B22,2013-03-25 02:07:00,
2013-03-24 22:12:00,44.6,43.5,29.47,SW,234,0.0,0.0,96,0.00,,,0.00,WeatherCatV1.00B22,2013-03-25 02:12:00,
2013-03-24 22:17:00,44.5,43.4,29.47,NW,326,0.0,2.0,96,0.00,,,0.00,WeatherCatV1.00B22,2013-03-25 02:17:00,
2013-03-24 22:22:00,44.4,43.3,29.47,NW,321,0.0,1.0,96,0.00,,,0.00,WeatherCatV1.00B22,2013-03-25 02:22:00,
2013-03-24 22:27:00,44.4,43.3,29.47,SW,230,0.0,1.0,96,0.00,,,0.00,WeatherCatV1.00B22,2013-03-25 02:27:00,
2013-03-24 22:32:00,44.4,43.3,29.47,West,271,0.0,2.0,96,0.00,,,0.00,WeatherCatV1.00B22,2013-03-25 02:32:00,
2013-03-24 22:37:00,44.3,43.2,29.47,SE,144,1.0,3.0,96,0.00,,,0.00,WeatherCatV1.00B22,2013-03-25 02:37:00,
2013-03-24 22:42:00,44.3,43.2,29.47,WNW,297,2.0,3.0,96,0.00,,,0.00,WeatherCatV1.00B22,2013-03-25 02:42:00,
2013-03-24 22:47:00,44.4,43.1,29.48,West,267,0.0,4.0,95,0.00,,,0.00,WeatherCatV1.00B22,2013-03-25 02:47:00,
2013-03-24 22:52:00,44.6,42.7,29.48,WNW,296,4.0,6.0,93,0.00,,,0.00,WeatherCatV1.00B22,2013-03-25 02:52:00,
2013-03-24 22:57:00,44.9,42.7,29.49,NW,309,5.0,6.0,92,0.00,,,0.00,WeatherCatV1.00B22,2013-03-25 02:57:00,
2013-03-24 23:02:00,45.0,42.0,29.49,NW,317,5.0,6.0,89,0.00,,,0.00,WeatherCatV1.00B22,2013-03-25 03:02:00,
2013-03-24 23:07:00,44.9,40.7,29.50,North,355,6.0,10.0,85,0.00,,,0.00,WeatherCatV1.00B22,2013-03-25 03:07:00,
2013-03-24 23:12:00,44.6,39.8,29.50,NNW,341,4.0,7.0,83,0.00,,,0.00,WeatherCatV1.00B22,2013-03-25 03:12:00,
2013-03-24 23:17:00,44.3,39.2,29.50,WNW,290,3.0,6.0,82,0.00,,,0.00,WeatherCatV1.00B22,2013-03-25 03:17:00,
2013-03-24 23:22:00,43.9,38.8,29.50,WSW,257,9.0,9.0,82,0.00,,,0.00,WeatherCatV1.00B22,2013-03-25 03:22:00,
2013-03-24 23:27:00,43.5,38.1,29.51,NE,44,4.0,11.0,81,0.00,,,0.00,WeatherCatV1.00B22,2013-03-25 03:27:00,
2013-03-24 23:32:00,43.2,36.8,29.51,West,261,4.0,5.0,78,0.00,,,0.00,WeatherCatV1.00B22,2013-03-25 03:32:00,
2013-03-24 23:37:00,42.9,35.9,29.52,West,274,4.0,9.0,76,0.00,,,0.00,WeatherCatV1.00B22,2013-03-25 03:37:00,
2013-03-24 23:42:00,42.6,35.6,29.52,WSW,248,1.0,8.0,76,0.00,,,0.00,WeatherCatV1.00B22,2013-03-25 03:42:00,
2013-03-24 23:47:00,42.3,35.6,29.52,NE,51,3.0,3.0,77,0.00,,,0.00,WeatherCatV1.00B22,2013-03-25 03:47:00,
2013-03-24 23:52:00,42.1,34.8,29.53,WSW,252,0.0,6.0,75,0.00,,,0.00,WeatherCatV1.00B22,2013-03-25 03:52:00,
2013-03-24 23:57:00,42.0,35.0,29.53,NNE,20,1.0,6.0,76,0.00,,,0.00,WeatherCatV1.00B22,2013-03-25 03:57:00,